Portada
METAR-TAF:

METAR-TAF

Aeropuertos :

Curazao, Antillas Neerlandesas

Aeropuerto Internacional Hato

latitud: 12-12N, longitud: 068-58W, altitud: 9 m

Observación

El informe se hizo hace 1 hora y 17 minutos, a las 14:00 UTC
Viento 5 kt del este, variando entre este-noreste y este-sureste
Temperatura 29°C
Humedad 62%
Presión 1014 hPa
Visibilidad 10 km o más
Nubes dispersas a una altura de 2000 ft

METAR: TNCC 111400Z 09005KT 060V120 9999 SCT020 29/21 Q1014 NOSIG

Hora: 11:17 (15:17 UTC)

Pronóstico

El informe se hizo hace 6 horas y 17 minutos, a las 09:00 UTC
Pronóstico válido del 11 a las 12 UTC al 12 a las 12 UTC
Viento 7 kt del este
Visibilidad 10 km o más
Escasas nubes a una altura de 2500 ft
Temporalmente
del 11 a las 12 UTC al 11 a las 16 UTC
Cielo nuboso a una altura de 1800 ft

TAF: TNCC 110900Z 1112/1212 08007KT 9999 FEW025 TEMPO 1112/1116 BKN018

Observaciones y pronósticos meteorológicos de más de 4000 aeropuertos (mensajes METAR y TAF).

Los puntos amarillos y rojos representan las estaciones disponibles.

Ponga el ratón en el punto deseado para ver el nombre de la estación.

Haga clic para ver las observaciones y los pronósticos meteorológicos.

Para cambiar el mapa : haga clic en los botones verdes con una cruz de color negro para hacer un zoom, en el botón verde con un guión para alejar o en las flechas verdes para mapas adyacentes.


METAR-TAF: